Airfield :
LOGIN :

Register | Disclaimer

   EN    FR    IT 

 










Legend :    VFR   Marginal VFR   IFR   Intensive IFR   Very Intensive IFR
Visi :
Ceiling :
>= 8 km
>= 3000ft
5 to 8 km
1000 to 3000 ft
1500m to 5 km
500 to 1000 ft
800 to 1500m
200 to 500 ft
< 800m
< 200 ft
Symbols :   Thunderstorms  Fog  Heavy snow  Heavy precipitations  Wind > 20 kt
SIGMETs :     Misc.  Thunderstorms  Icing  Turbulence  Mountain Waves  Volcanic Ashes







- Airport Elevation : 74 ft
- IATA code : EIN


EHEH - Eindhoven

CURRENT METAR :
  • 121255Z AUTO 07004KT 010V120 9999 OVC035 05/02 Q1025 BLU 07005KT 9999 FEW022 BKN030

EXPIRED METARs :
  • 121225Z AUTO 08005KT 040V180 9999 OVC030 05/03 Q1025 BLU 07005KT 9999 FEW022 BKN030
  • 121207Z AUTO 09005KT 020V140 9999 FEW023 OVC029 04/03 Q1025 BLU 07005KT 9999 FEW022 SCT025 BKN045
  • 121155Z AUTO 09004KT 030V120 9999 SCT021 BKN025 BKN030 04/03 Q1026 WHT 07005KT 9999 FEW022 SCT025 BKN045
  • 121144Z AUTO 09004KT 030V150 8000 BR SCT022 BKN034 OVC042 04/03 Q1026 WHT 07005KT 8000 FEW025 BKN045
  • 121130Z AUTO 07004KT 020V120 7000 BR FEW033 BKN040 OVC044 04/03 Q1026 WHT 07005KT 8000 BKN045
  • 121125Z AUTO 07005KT 030V120 6000 BR FEW033 BKN043 04/03 Q1026 WHT 07005KT 6000 BKN045
  • 121103Z AUTO 06005KT 030V090 6000 BR OVC043 03/02 Q1026 WHT 07005KT 6000 BKN045
  • 121055Z AUTO 07006KT 020V120 6000 BR BKN045 03/02 Q1026 WHT 07005KT 6000 BKN045
  • 121041Z AUTO VRB05KT 6000 BR FEW030 OVC044 03/02 Q1026 WHT 07005KT 5000 BKN045
  • 121036Z AUTO VRB05KT 5000 BR FEW030 OVC045 03/02 Q1026 WHT 07005KT 5000 BKN045 TEMPO SCT003 BKN045
  • 121025Z AUTO 06004KT 030V130 5000 BR OVC044 02/02 Q1026 WHT 07005KT 5000 BKN045 TEMPO SCT003 BKN045
  • 121009Z AUTO 04005KT 020V090 4300 BR FEW002 BKN003 OVC044 02/02 Q1026 YLO 07005KT 5000 BKN045 TEMPO SCT003 BKN045

TAF TAF EHEH
Valid from the 12 at 12:00 until the 13 at 18:00 UTC


121135Z 1212/1318 07005KT 8000 SCT025 BKN045
PROB30 1302/1308 2000 BR FEW003 SCT006
No reported NOTAMs for that airfield.



MET'MAP, your aeronautical weather chart ! - Copyright ORBIFLY December 2007 - Disclaimer

ORBIFLY MET'MAP TEAM :

Programming & Development : Alexandra Zaïnal
Concept & Development : Baudouin d'Aumeries
Co-Development & Prog : Marc-Olivier Méhu
Technical & hardware support : Manuel Goepfert

Contact : metmap@orbifly.com




SOURCES & CREDITS :

   NOAA